Time;durP1;ratioP1;P1;durP2;ratioP2;P2;SDS_P1;SDS_P2;PMS_P1;PMS_P2;Temp;Humidity;BMP_temperature;BMP_pressure;BME280_temperature;BME280_humidity;BME280_pressure;Samples;Min_cycle;Max_cycle;Signal;HPM_P1;HPM_P2
2023/08/28 00:00:59;;;;;;;14.63;8.82;;;;;;;;;;5100344;27;20093;-71
2023/08/28 00:03:25;;;;;;;14.65;8.63;;;;;;;;;;5116112;27;20039;-71
2023/08/28 00:05:51;;;;;;;14.13;8.50;;;;;;;;;;5117379;27;20096;-72
2023/08/28 00:08:17;;;;;;;13.30;8.98;;;;;;;;;;5116332;27;20142;-72
2023/08/28 00:10:43;;;;;;;;;;;;;;;;;;5117536;27;20051;-71
2023/08/28 00:13:09;;;;;;;15.63;8.52;;;;;;;;;;5115498;27;20026;-71
2023/08/28 00:15:35;;;;;;;14.90;8.85;;;;;;;;;;5135371;27;20392;-72
2023/08/28 00:18:01;;;;;;;;;;;;;;;;;;5117078;27;20421;-72
2023/08/28 00:20:27;;;;;;;15.43;8.75;;;;;;;;;;5116525;27;20127;-72
2023/08/28 00:22:53;;;;;;;;;;;;;;;;;;5117204;27;20043;-72
2023/08/28 00:25:19;;;;;;;16.73;9.38;;;;;;;;;;5116382;27;19919;-72
2023/08/28 00:27:45;;;;;;;17.02;9.13;;;;;;;;;;5099351;27;20125;-72
2023/08/28 00:30:11;;;;;;;;;;;;;;;;;;5116288;27;20043;-72
2023/08/28 00:32:38;;;;;;;15.25;8.60;;;;;;;;;;5116272;27;19923;-71
2023/08/28 00:35:05;;;;;;;13.88;9.20;;;;;;;;;;5116774;27;20047;-72
2023/08/28 00:37:31;;;;;;;16.02;8.88;;;;;;;;;;5099051;27;20134;-71
2023/08/28 00:39:57;;;;;;;;;;;;;;;;;;5134887;27;20488;-72
2023/08/28 00:42:23;;;;;;;14.45;8.80;;;;;;;;;;5115342;27;19920;-72
2023/08/28 00:44:49;;;;;;;16.08;8.93;;;;;;;;;;5115840;27;20484;-71
2023/08/28 00:47:16;;;;;;;14.77;9.38;;;;;;;;;;5133654;27;20050;-72
2023/08/28 00:49:43;;;;;;;17.65;9.13;;;;;;;;;;5116488;27;20092;-72
2023/08/28 00:52:09;;;;;;;13.73;9.68;;;;;;;;;;5116091;27;20083;-74
2023/08/28 00:54:36;;;;;;;16.73;9.48;;;;;;;;;;5115707;27;20047;-73
2023/08/28 00:57:02;;;;;;;;;;;;;;;;;;5099318;27;20484;-71
2023/08/28 00:59:28;;;;;;;14.75;9.23;;;;;;;;;;5114752;27;19923;-72
2023/08/28 01:01:54;;;;;;;20.77;11.32;;;;;;;;;;5115675;27;20031;-72
2023/08/28 01:04:20;;;;;;;16.77;10.32;;;;;;;;;;5115428;27;20084;-71
2023/08/28 01:06:49;;;;;;;16.70;10.68;;;;;;;;;;5116161;27;20050;-71
2023/08/28 01:09:26;;;;;;;16.77;9.65;;;;;;;;;;5098013;27;20058;-71
2023/08/28 01:12:04;;;;;;;16.25;10.10;;;;;;;;;;5115906;27;20052;-71
2023/08/28 01:14:30;;;;;;;17.65;9.50;;;;;;;;;;5114549;27;20074;-72
2023/08/28 01:16:56;;;;;;;;;;;;;;;;;;5115655;27;20480;-71
2023/08/28 01:19:35;;;;;;;14.17;9.07;;;;;;;;;;5115458;27;19919;-71
2023/08/28 01:22:27;;;;;;;15.27;9.70;;;;;;;;;;5115753;27;20050;-72
2023/08/28 01:24:55;;;;;;;15.90;10.45;;;;;;;;;;5084374;27;20043;-71
2023/08/28 01:27:22;;;;;;;16.85;10.32;;;;;;;;;;5114492;27;20392;-71
2023/08/28 01:29:48;;;;;;;;;;;;;;;;;;5115689;27;20112;-72
2023/08/28 01:32:14;;;;;;;18.17;10.65;;;;;;;;;;5114715;27;19995;-73
2023/08/28 01:34:40;;;;;;;20.55;12.90;;;;;;;;;;5115321;27;20095;-71
2023/08/28 01:37:15;;;;;;;23.73;13.25;;;;;;;;;;5098774;27;20126;-72
2023/08/28 01:39:43;;;;;;;21.42;12.07;;;;;;;;;;5115480;27;20054;-71
2023/08/28 01:42:10;;;;;;;20.17;12.02;;;;;;;;;;5114918;27;20046;-72
2023/08/28 01:44:36;;;;;;;24.33;13.48;;;;;;;;;;5132388;27;20041;-71
2023/08/28 01:47:03;;;;;;;23.75;13.43;;;;;;;;;;5114886;27;20083;-71
2023/08/28 01:49:29;;;;;;;24.83;13.65;;;;;;;;;;5114857;27;20049;-72
2023/08/28 01:51:55;;;;;;;;;;;;;;;;;;5133840;27;20050;-71
2023/08/28 01:54:21;;;;;;;23.83;14.07;;;;;;;;;;5114510;27;19920;-71
2023/08/28 01:56:48;;;;;;;21.00;13.13;;;;;;;;;;5133149;27;20171;-72
2023/08/28 01:59:14;;;;;;;;;;;;;;;;;;5114654;27;20043;-72
2023/08/28 02:01:40;;;;;;;21.47;13.30;;;;;;;;;;5114695;27;19974;-71
2023/08/28 02:04:06;;;;;;;;;;;;;;;;;;5114717;27;20039;-71
2023/08/28 02:06:32;;;;;;;23.55;13.63;;;;;;;;;;5113891;27;19942;-71
2023/08/28 02:08:58;;;;;;;;;;;;;;;;;;5114894;27;20062;-71
2023/08/28 02:11:24;;;;;;;24.23;13.52;;;;;;;;;;5114326;27;19920;-72
2023/08/28 02:13:50;;;;;;;;;;;;;;;;;;5114406;27;20054;-71
2023/08/28 02:16:17;;;;;;;23.10;13.40;;;;;;;;;;5115094;28;19920;-72
2023/08/28 02:18:43;;;;;;;26.25;15.50;;;;;;;;;;5113981;27;20050;-71
2023/08/28 02:21:09;;;;;;;;;;;;;;;;;;5115321;28;20160;-72
2023/08/28 02:23:35;;;;;;;26.35;15.10;;;;;;;;;;5114040;28;20013;-71
2023/08/28 02:26:01;;;;;;;;;;;;;;;;;;5115218;28;20139;-71
2023/08/28 02:28:27;;;;;;;28.17;16.77;;;;;;;;;;5113211;28;19999;-71
2023/08/28 02:30:53;;;;;;;25.80;15.93;;;;;;;;;;5132972;28;20046;-71
2023/08/28 02:33:19;;;;;;;;;;;;;;;;;;5114693;28;20047;-71
2023/08/28 02:35:45;;;;;;;30.08;16.88;;;;;;;;;;5132343;28;19920;-72
2023/08/28 02:38:11;;;;;;;;;;;;;;;;;;5115108;28;20100;-71
2023/08/28 02:40:38;;;;;;;24.77;15.45;;;;;;;;;;5114091;28;20407;-72
2023/08/28 02:43:09;;;;;;;27.20;15.35;;;;;;;;;;5113553;28;20039;-71
2023/08/28 02:45:41;;;;;;;24.55;15.32;;;;;;;;;;5114321;28;20057;-71
2023/08/28 02:48:09;;;;;;;31.30;15.57;;;;;;;;;;5114166;28;20048;-71
2023/08/28 02:50:35;;;;;;;27.58;16.27;;;;;;;;;;5114221;28;20050;-72
2023/08/28 02:53:01;;;;;;;29.10;16.42;;;;;;;;;;5132366;28;20035;-71
2023/08/28 02:55:30;;;;;;;31.67;16.45;;;;;;;;;;5114147;28;20127;-74
2023/08/28 02:57:56;;;;;;;26.65;14.75;;;;;;;;;;5113883;28;20051;-71
2023/08/28 03:00:22;;;;;;;25.98;14.93;;;;;;;;;;5114202;28;20039;-71
2023/08/28 03:02:48;;;;;;;25.77;15.15;;;;;;;;;;5113443;28;20082;-71
2023/08/28 03:05:14;;;;;;;;;;;;;;;;;;5115064;28;20054;-72
2023/08/28 03:07:40;;;;;;;30.42;15.65;;;;;;;;;;5131974;28;19919;-72
2023/08/28 03:10:07;;;;;;;;;;;;;;;;;;5133091;28;20059;-71
2023/08/28 03:12:33;;;;;;;24.02;14.93;;;;;;;;;;5113210;28;19930;-72
2023/08/28 03:14:59;;;;;;;24.95;15.23;;;;;;;;;;5097139;28;20047;-72
2023/08/28 03:17:25;;;;;;;29.58;15.70;;;;;;;;;;5098755;27;20054;-71
2023/08/28 03:19:51;;;;;;;24.85;15.32;;;;;;;;;;5117770;27;20536;-72
2023/08/28 03:22:17;;;;;;;;;;;;;;;;;;5136517;27;20051;-72
2023/08/28 03:24:43;;;;;;;30.90;16.17;;;;;;;;;;5117243;27;20280;-72
2023/08/28 03:27:09;;;;;;;26.27;15.85;;;;;;;;;;5117769;27;20111;-72
2023/08/28 03:29:35;;;;;;;28.10;16.30;;;;;;;;;;5116859;27;20051;-71
2023/08/28 03:32:01;;;;;;;32.13;17.45;;;;;;;;;;5117535;27;20078;-72
2023/08/28 03:34:27;;;;;;;29.52;16.95;;;;;;;;;;5117843;27;20055;-71
2023/08/28 03:36:53;;;;;;;;;;;;;;;;;;5117762;27;20043;-72
2023/08/28 03:39:19;;;;;;;30.63;16.95;;;;;;;;;;5117396;27;19920;-72
2023/08/28 03:41:45;;;;;;;32.28;17.70;;;;;;;;;;5117070;27;20110;-71
2023/08/28 03:44:11;;;;;;;31.38;16.90;;;;;;;;;;5116570;27;20437;-71
2023/08/28 03:46:37;;;;;;;28.60;17.25;;;;;;;;;;5117215;27;20113;-72
2023/08/28 03:49:04;;;;;;;;;;;;;;;;;;5117621;27;20051;-71
2023/08/28 03:51:30;;;;;;;30.05;17.73;;;;;;;;;;5117626;27;19926;-71
2023/08/28 03:53:56;;;;;;;;;;;;;;;;;;5117357;27;20054;-71
2023/08/28 03:56:22;;;;;;;28.88;17.20;;;;;;;;;;5117398;27;19972;-71
2023/08/28 03:58:48;;;;;;;32.72;18.45;;;;;;;;;;5098884;27;20055;-71
2023/08/28 04:01:14;;;;;;;32.97;17.85;;;;;;;;;;5117512;27;20046;-71
2023/08/28 04:03:40;;;;;;;30.00;17.65;;;;;;;;;;5134375;27;20042;-71
2023/08/28 04:06:08;;;;;;;;;;;;;;;;;;5117744;27;20480;-72
2023/08/28 04:08:34;;;;;;;28.25;15.05;;;;;;;;;;5113525;28;19953;-71
2023/08/28 04:11:00;;;;;;;27.48;15.57;;;;;;;;;;5114494;28;20154;-71
2023/08/28 04:13:26;;;;;;;;;;;;;;;;;;5096203;28;20488;-71
2023/08/28 04:15:52;;;;;;;34.45;17.63;;;;;;;;;;5113300;28;19951;-71
2023/08/28 04:18:18;;;;;;;29.30;16.42;;;;;;;;;;5113243;28;20050;-71
2023/08/28 04:20:44;;;;;;;;;;;;;;;;;;5113503;28;20047;-71
2023/08/28 04:23:10;;;;;;;30.23;15.77;;;;;;;;;;5113352;28;19920;-71
2023/08/28 04:25:36;;;;;;;31.02;17.35;;;;;;;;;;5113576;28;20546;-71
2023/08/28 04:28:03;;;;;;;;;;;;;;;;;;5111829;28;20058;-71
2023/08/28 04:30:29;;;;;;;31.00;17.27;;;;;;;;;;5113134;28;20360;-71
2023/08/28 04:32:55;;;;;;;;;;;;;;;;;;5095762;28;20079;-71
2023/08/28 04:35:21;;;;;;;26.85;15.73;;;;;;;;;;5096390;28;19970;-71
2023/08/28 04:37:47;;;;;;;26.65;15.70;;;;;;;;;;5112717;28;20151;-71
2023/08/28 04:40:13;;;;;;;28.90;15.75;;;;;;;;;;5113202;28;20043;-71
2023/08/28 04:42:39;;;;;;;31.52;16.35;;;;;;;;;;5095560;28;20129;-71
2023/08/28 04:45:06;;;;;;;28.55;16.92;;;;;;;;;;5112028;28;20039;-72
2023/08/28 04:47:32;;;;;;;31.95;17.85;;;;;;;;;;5112662;28;20397;-71
2023/08/28 04:49:58;;;;;;;28.38;15.98;;;;;;;;;;5113642;28;20092;-72
2023/08/28 04:52:24;;;;;;;32.40;16.05;;;;;;;;;;5113911;28;20046;-71
2023/08/28 04:54:50;;;;;;;27.17;15.35;;;;;;;;;;5112396;28;20043;-71
2023/08/28 04:57:17;;;;;;;26.50;15.40;;;;;;;;;;5112214;28;20176;-71
2023/08/28 04:59:43;;;;;;;;;;;;;;;;;;5112453;28;20136;-74
2023/08/28 05:02:09;;;;;;;27.20;15.00;;;;;;;;;;5125529;27;19926;-71
2023/08/28 05:04:35;;;;;;;27.70;15.20;;;;;;;;;;5112602;28;20039;-71
2023/08/28 05:07:02;;;;;;;26.08;14.18;;;;;;;;;;5112234;28;20079;-71
2023/08/28 05:09:28;;;;;;;24.35;13.98;;;;;;;;;;5112033;28;20058;-71
2023/08/28 05:11:54;;;;;;;22.90;13.13;;;;;;;;;;5112658;28;20664;-71
2023/08/28 05:14:20;;;;;;;21.58;12.70;;;;;;;;;;5112739;28;20641;-71
2023/08/28 05:16:46;;;;;;;;;;;;;;;;;;5112795;28;20055;-73
2023/08/28 05:19:12;;;;;;;22.05;13.43;;;;;;;;;;5094854;28;19920;-72
2023/08/28 05:21:38;;;;;;;24.17;13.73;;;;;;;;;;5112405;28;20046;-71
2023/08/28 05:24:04;;;;;;;;;;;;;;;;;;5111887;28;20075;-71
2023/08/28 05:26:30;;;;;;;26.83;14.02;;;;;;;;;;5112284;28;19951;-71
2023/08/28 05:28:56;;;;;;;24.33;13.70;;;;;;;;;;5110603;28;20053;-71
2023/08/28 05:31:22;;;;;;;;;;;;;;;;;;5112796;28;20047;-72
2023/08/28 05:33:48;;;;;;;31.92;15.93;;;;;;;;;;5094486;28;20502;-74
2023/08/28 05:36:14;;;;;;;;;;;;;;;;;;5112364;28;20059;-71
2023/08/28 05:38:40;;;;;;;34.88;17.92;;;;;;;;;;5112025;28;19919;-71
2023/08/28 05:41:06;;;;;;;35.65;19.95;;;;;;;;;;5111493;28;20089;-71
2023/08/28 05:43:32;;;;;;;40.05;20.35;;;;;;;;;;5110771;28;20043;-71
2023/08/28 05:45:58;;;;;;;36.15;19.65;;;;;;;;;;5111492;28;20050;-71
2023/08/28 05:48:25;;;;;;;33.78;18.77;;;;;;;;;;5111534;28;20054;-71
2023/08/28 05:50:51;;;;;;;35.08;18.65;;;;;;;;;;5111694;28;20149;-74
2023/08/28 05:53:17;;;;;;;35.95;19.17;;;;;;;;;;5094530;28;20058;-72
2023/08/28 05:55:43;;;;;;;40.13;19.20;;;;;;;;;;5111769;28;20044;-71
2023/08/28 05:58:09;;;;;;;38.70;18.60;;;;;;;;;;5093355;28;20052;-71
2023/08/28 06:00:35;;;;;;;;;;;;;;;;;;5112098;28;20165;-71
2023/08/28 06:03:01;;;;;;;38.78;18.88;;;;;;;;;;5110754;28;20361;-71
2023/08/28 06:05:27;;;;;;;37.90;19.08;;;;;;;;;;5111808;28;20097;-71
2023/08/28 06:07:53;;;;;;;;;;;;;;;;;;5094760;28;20400;-74
2023/08/28 06:10:19;;;;;;;34.58;18.55;;;;;;;;;;5110586;28;19942;-71
2023/08/28 06:12:46;;;;;;;39.25;20.48;;;;;;;;;;5093673;28;20079;-71
2023/08/28 06:15:18;;;;;;;30.92;17.85;;;;;;;;;;5110585;28;20047;-71
2023/08/28 06:17:45;;;;;;;35.40;17.83;;;;;;;;;;5111295;28;20058;-71
2023/08/28 06:20:11;;;;;;;33.17;17.20;;;;;;;;;;5110988;28;20039;-71
2023/08/28 06:22:44;;;;;;;28.45;15.70;;;;;;;;;;5111325;28;20047;-72
2023/08/28 06:25:11;;;;;;;32.22;16.73;;;;;;;;;;5110972;28;20043;-71
2023/08/28 06:27:37;;;;;;;25.52;15.38;;;;;;;;;;5110825;28;20592;-71
2023/08/28 06:30:06;;;;;;;31.85;17.00;;;;;;;;;;5110393;28;20146;-72
2023/08/28 06:32:32;;;;;;;29.58;16.35;;;;;;;;;;5110950;28;20050;-71
2023/08/28 06:34:58;;;;;;;28.52;16.10;;;;;;;;;;5110832;28;20116;-72
2023/08/28 06:37:24;;;;;;;;;;;;;;;;;;5112655;28;20043;-71
2023/08/28 06:39:51;;;;;;;27.83;15.32;;;;;;;;;;5111287;28;19920;-71
2023/08/28 06:42:17;;;;;;;22.33;14.35;;;;;;;;;;5110054;28;20051;-72
2023/08/28 06:44:43;;;;;;;27.05;14.73;;;;;;;;;;5110639;28;20127;-72
2023/08/28 06:47:09;;;;;;;;;;;;;;;;;;5110734;28;20058;-71
2023/08/28 06:49:35;;;;;;;24.70;14.88;;;;;;;;;;5111251;28;19920;-71
2023/08/28 06:52:04;;;;;;;20.48;12.70;;;;;;;;;;5111851;28;20047;-73
2023/08/28 06:54:32;;;;;;;22.85;12.77;;;;;;;;;;5115199;28;20051;-72
2023/08/28 06:56:58;;;;;;;23.88;13.75;;;;;;;;;;5115029;28;20055;-74
2023/08/28 06:59:24;;;;;;;24.13;12.82;;;;;;;;;;5114160;28;20089;-72
2023/08/28 07:01:50;;;;;;;;;;;;;;;;;;5115646;28;20369;-74
2023/08/28 07:04:16;;;;;;;25.25;13.00;;;;;;;;;;5114100;28;19926;-72
2023/08/28 07:06:42;;;;;;;24.73;13.05;;;;;;;;;;5115047;28;20047;-71
2023/08/28 07:09:08;;;;;;;;;;;;;;;;;;5117956;27;20142;-71
2023/08/28 07:11:35;;;;;;;21.08;12.27;;;;;;;;;;5101242;27;19958;-72
2023/08/28 07:14:01;;;;;;;;;;;;;;;;;;5117469;27;20437;-75
2023/08/28 07:16:27;;;;;;;17.75;11.52;;;;;;;;;;5118217;27;19919;-71
2023/08/28 07:18:53;;;;;;;22.50;12.88;;;;;;;;;;5117928;27;20039;-72
2023/08/28 07:21:19;;;;;;;;;;;;;;;;;;5118036;27;20046;-72
2023/08/28 07:23:45;;;;;;;19.15;11.73;;;;;;;;;;5117579;27;19919;-72
2023/08/28 07:26:11;;;;;;;21.88;12.07;;;;;;;;;;5117218;27;20075;-72
2023/08/28 07:28:37;;;;;;;;;;;;;;;;;;5117121;27;20084;-72
2023/08/28 07:31:03;;;;;;;17.67;10.73;;;;;;;;;;5135438;27;19923;-75
2023/08/28 07:33:30;;;;;;;18.55;12.05;;;;;;;;;;5117323;27;20533;-71
2023/08/28 07:35:56;;;;;;;;;;;;;;;;;;5118192;27;20043;-72
2023/08/28 07:38:22;;;;;;;21.50;11.35;;;;;;;;;;5117267;27;20394;-71
2023/08/28 07:40:48;;;;;;;;;;;;;;;;;;5118118;27;20047;-72
2023/08/28 07:43:14;;;;;;;16.95;10.85;;;;;;;;;;5116102;27;19925;-72
2023/08/28 07:45:40;;;;;;;18.25;10.95;;;;;;;;;;5100820;27;20039;-72
2023/08/28 07:48:07;;;;;;;;;;;;;;;;;;5117235;27;20388;-75
2023/08/28 07:50:34;;;;;;;15.05;10.10;;;;;;;;;;5117729;27;19927;-72
2023/08/28 07:53:00;;;;;;;17.55;10.35;;;;;;;;;;5100293;27;20088;-72
2023/08/28 07:55:26;;;;;;;15.35;9.95;;;;;;;;;;5117105;27;20188;-72
2023/08/28 07:57:52;;;;;;;13.07;8.60;;;;;;;;;;5134584;27;20465;-72
2023/08/28 08:00:21;;;;;;;13.93;8.77;;;;;;;;;;5116391;27;20039;-72
2023/08/28 08:02:48;;;;;;;14.88;9.07;;;;;;;;;;5116791;27;20058;-72
2023/08/28 08:05:14;;;;;;;17.08;8.48;;;;;;;;;;5115926;27;20085;-72
2023/08/28 08:07:40;;;;;;;13.85;7.70;;;;;;;;;;5117176;27;20051;-72
2023/08/28 08:10:08;;;;;;;12.43;7.05;;;;;;;;;;5116852;27;20043;-72
2023/08/28 08:12:34;;;;;;;12.93;7.53;;;;;;;;;;5116432;27;20047;-72
2023/08/28 08:15:00;;;;;;;;;;;;;;;;;;5117234;27;20484;-72
2023/08/28 08:17:26;;;;;;;11.25;6.90;;;;;;;;;;5116259;27;19920;-72
2023/08/28 08:19:52;;;;;;;9.85;5.10;;;;;;;;;;5117138;27;20118;-72
2023/08/28 08:22:18;;;;;;;;;;;;;;;;;;5116770;27;20229;-72
2023/08/28 08:24:44;;;;;;;7.53;5.50;;;;;;;;;;5099684;27;20014;-72
2023/08/28 08:27:10;;;;;;;;;;;;;;;;;;5099705;27;20053;-75
2023/08/28 08:29:36;;;;;;;12.95;6.40;;;;;;;;;;5116016;27;20407;-72
2023/08/28 08:32:02;;;;;;;;;;;;;;;;;;5116760;27;20047;-73
2023/08/28 08:34:28;;;;;;;6.95;4.57;;;;;;;;;;5116341;27;19971;-72
2023/08/28 08:36:54;;;;;;;;;;;;;;;;;;5117179;27;20054;-72
2023/08/28 08:39:21;;;;;;;8.90;5.70;;;;;;;;;;5116057;27;19919;-72
2023/08/28 08:41:47;;;;;;;9.98;5.47;;;;;;;;;;5116137;27;20055;-72
2023/08/28 08:44:13;;;;;;;9.63;5.90;;;;;;;;;;5114939;27;20501;-75
2023/08/28 08:46:39;;;;;;;;;;;;;;;;;;5117109;27;20039;-72
2023/08/28 08:49:06;;;;;;;10.32;4.60;;;;;;;;;;5116050;27;20356;-72
2023/08/28 08:51:33;;;;;;;8.85;3.15;;;;;;;;;;5133978;27;21001;-72
2023/08/28 08:54:01;;;;;;;7.32;3.15;;;;;;;;;;5116281;27;20133;-72
2023/08/28 08:56:31;;;;;;;4.80;3.20;;;;;;;;;;5115804;27;20138;-72
2023/08/28 08:58:57;;;;;;;7.60;3.72;;;;;;;;;;5115411;27;20051;-72
2023/08/28 09:01:23;;;;;;;4.18;2.60;;;;;;;;;;5115705;27;20051;-72
2023/08/28 09:03:49;;;;;;;;;;;;;;;;;;5116047;27;20096;-72
2023/08/28 09:06:16;;;;;;;5.20;3.25;;;;;;;;;;5115758;27;20337;-75
2023/08/28 09:08:42;;;;;;;7.28;2.70;;;;;;;;;;5116059;27;20086;-72
2023/08/28 09:11:09;;;;;;;5.78;2.65;;;;;;;;;;5115493;27;20054;-72
2023/08/28 09:13:35;;;;;;;6.22;2.22;;;;;;;;;;5131588;27;20499;-72
2023/08/28 09:16:04;;;;;;;2.22;1.50;;;;;;;;;;5115929;27;20451;-72
2023/08/28 09:18:30;;;;;;;3.85;1.65;;;;;;;;;;5114871;27;20043;-72
2023/08/28 09:21:09;;;;;;;4.20;1.00;;;;;;;;;;5115796;27;20045;-72
2023/08/28 09:23:40;;;;;;;4.65;1.30;;;;;;;;;;5114791;27;20784;-73
2023/08/28 09:26:06;;;;;;;4.72;1.50;;;;;;;;;;5115414;27;20051;-72
2023/08/28 09:28:32;;;;;;;;;;;;;;;;;;5114637;27;20047;-72
2023/08/28 09:30:58;;;;;;;6.65;1.60;;;;;;;;;;5115722;27;19929;-72
2023/08/28 09:33:24;;;;;;;;;;;;;;;;;;5115115;27;20373;-72
2023/08/28 09:35:50;;;;;;;3.90;1.20;;;;;;;;;;5115583;27;19967;-72
2023/08/28 09:38:17;;;;;;;4.60;0.93;;;;;;;;;;5115469;27;20128;-72
2023/08/28 09:40:43;;;;;;;1.33;0.98;;;;;;;;;;5114871;27;20055;-72
2023/08/28 09:43:10;;;;;;;;;;;;;;;;;;5114875;27;20133;-72
2023/08/28 09:45:37;;;;;;;3.22;1.30;;;;;;;;;;5114911;27;19919;-72
2023/08/28 09:48:04;;;;;;;4.95;1.40;;;;;;;;;;5114966;27;20035;-72
2023/08/28 09:50:31;;;;;;;3.28;1.08;;;;;;;;;;5114834;27;20051;-72
2023/08/28 09:53:09;;;;;;;2.65;1.42;;;;;;;;;;5114744;27;20039;-73
2023/08/28 09:55:47;;;;;;;3.45;1.45;;;;;;;;;;5097861;27;20117;-72
2023/08/28 09:58:13;;;;;;;5.15;2.15;;;;;;;;;;5114243;27;20050;-72
2023/08/28 10:00:39;;;;;;;;;;;;;;;;;;5133206;27;20053;-72
2023/08/28 10:03:07;;;;;;;2.60;1.17;;;;;;;;;;5114608;27;19973;-72
2023/08/28 10:05:35;;;;;;;2.17;1.00;;;;;;;;;;5114664;27;20083;-72
2023/08/28 10:08:04;;;;;;;2.92;1.10;;;;;;;;;;5114849;27;20046;-72
2023/08/28 10:10:30;;;;;;;1.73;0.90;;;;;;;;;;5114092;28;20055;-72
2023/08/28 10:12:56;;;;;;;3.17;1.10;;;;;;;;;;5114280;27;20463;-72
2023/08/28 10:15:22;;;;;;;2.60;0.80;;;;;;;;;;5114655;27;20043;-72
2023/08/28 10:17:50;;;;;;;4.13;1.75;;;;;;;;;;5113967;27;20070;-72
2023/08/28 10:20:18;;;;;;;4.18;1.30;;;;;;;;;;5114935;27;20043;-72
2023/08/28 10:22:45;;;;;;;4.00;1.20;;;;;;;;;;5114205;28;20460;-72
2023/08/28 10:25:13;;;;;;;2.75;1.20;;;;;;;;;;5114522;28;20051;-72
2023/08/28 10:27:40;;;;;;;1.70;0.93;;;;;;;;;;5113199;28;20129;-72
2023/08/28 10:30:08;;;;;;;3.10;1.00;;;;;;;;;;5114398;28;20497;-72
2023/08/28 10:32:34;;;;;;;2.63;1.27;;;;;;;;;;5113571;28;20059;-72
2023/08/28 10:35:00;;;;;;;4.60;1.45;;;;;;;;;;5132961;28;20039;-72
2023/08/28 10:37:27;;;;;;;3.00;1.30;;;;;;;;;;5097655;28;20049;-72
2023/08/28 10:39:58;;;;;;;4.30;1.30;;;;;;;;;;5097614;28;20043;-72
2023/08/28 10:42:26;;;;;;;3.88;1.20;;;;;;;;;;5114017;28;20387;-72
2023/08/28 10:44:52;;;;;;;2.97;1.10;;;;;;;;;;5113537;28;20055;-72
2023/08/28 10:47:19;;;;;;;5.40;1.35;;;;;;;;;;5097300;28;20058;-72
2023/08/28 10:49:46;;;;;;;4.55;1.23;;;;;;;;;;5114105;28;20054;-72
2023/08/28 10:52:12;;;;;;;2.25;1.30;;;;;;;;;;5114199;28;20039;-72
2023/08/28 10:54:39;;;;;;;3.67;1.17;;;;;;;;;;5114014;28;20047;-72
2023/08/28 10:57:10;;;;;;;3.38;1.05;;;;;;;;;;5114396;28;20046;-73
2023/08/28 10:59:46;;;;;;;3.17;1.40;;;;;;;;;;5113502;28;20130;-72
2023/08/28 11:02:12;;;;;;;1.35;1.10;;;;;;;;;;5131189;28;20914;-72
2023/08/28 11:04:40;;;;;;;1.85;0.90;;;;;;;;;;5096852;28;20047;-73
2023/08/28 11:07:11;;;;;;;1.35;1.10;;;;;;;;;;5114220;28;20043;-72
2023/08/28 11:09:37;;;;;;;2.90;1.30;;;;;;;;;;5113561;28;20061;-72
2023/08/28 11:12:03;;;;;;;1.95;0.90;;;;;;;;;;5131343;28;20399;-73
2023/08/28 11:14:29;;;;;;;;;;;;;;;;;;5097028;28;20043;-72
2023/08/28 11:17:05;;;;;;;1.55;0.73;;;;;;;;;;5113764;28;20014;-73
2023/08/28 11:19:31;;;;;;;0.80;0.73;;;;;;;;;;5114339;28;20040;-72
2023/08/28 11:22:03;;;;;;;2.22;0.80;;;;;;;;;;5113837;28;20043;-73
2023/08/28 11:24:31;;;;;;;1.52;1.08;;;;;;;;;;5114392;28;20100;-73
2023/08/28 11:26:57;;;;;;;3.70;1.30;;;;;;;;;;5113629;28;20043;-73
2023/08/28 11:29:27;;;;;;;3.50;1.10;;;;;;;;;;5113368;28;20040;-73
2023/08/28 11:31:53;;;;;;;3.22;1.08;;;;;;;;;;5113612;28;20047;-73
2023/08/28 11:34:19;;;;;;;4.22;1.17;;;;;;;;;;5113959;28;20566;-73
2023/08/28 11:36:45;;;;;;;1.98;1.20;;;;;;;;;;5113654;28;20039;-73
2023/08/28 11:39:22;;;;;;;4.43;1.10;;;;;;;;;;5115369;27;20043;-73
2023/08/28 11:41:49;;;;;;;2.65;1.02;;;;;;;;;;5117016;27;20053;-73
2023/08/28 11:44:15;;;;;;;2.30;0.80;;;;;;;;;;5116557;27;20035;-73
2023/08/28 11:46:42;;;;;;;3.70;1.10;;;;;;;;;;5117272;27;20055;-73
2023/08/28 11:49:08;;;;;;;3.20;0.90;;;;;;;;;;5117179;27;20690;-74
2023/08/28 11:51:36;;;;;;;2.70;0.77;;;;;;;;;;5117683;27;20046;-73
2023/08/28 11:54:03;;;;;;;4.63;0.80;;;;;;;;;;5117116;27;20167;-73
2023/08/28 11:56:33;;;;;;;3.65;1.38;;;;;;;;;;5100508;27;20103;-74
2023/08/28 11:59:00;;;;;;;3.75;0.80;;;;;;;;;;5134131;27;20111;-73
2023/08/28 12:01:29;;;;;;;4.40;0.90;;;;;;;;;;5117532;27;20043;-74
2023/08/28 12:03:59;;;;;;;4.10;1.08;;;;;;;;;;5116159;27;20044;-74
2023/08/28 12:06:25;;;;;;;1.63;0.90;;;;;;;;;;5100363;27;20050;-73
2023/08/28 12:08:51;;;;;;;2.78;1.00;;;;;;;;;;5116630;27;20038;-74
2023/08/28 12:11:18;;;;;;;1.63;0.90;;;;;;;;;;5116917;27;20051;-73
2023/08/28 12:13:44;;;;;;;3.70;0.88;;;;;;;;;;5115697;27;20054;-74
2023/08/28 12:16:17;;;;;;;2.45;1.13;;;;;;;;;;5117361;27;20632;-74
2023/08/28 12:18:53;;;;;;;2.80;0.88;;;;;;;;;;5116117;27;20160;-74
2023/08/28 12:21:35;;;;;;;2.30;0.80;;;;;;;;;;5117176;27;20408;-74
2023/08/28 12:24:01;;;;;;;2.75;0.70;;;;;;;;;;5116235;27;20628;-73
2023/08/28 12:26:30;;;;;;;2.72;0.82;;;;;;;;;;5116853;27;20054;-73
2023/08/28 12:28:56;;;;;;;2.15;0.55;;;;;;;;;;5115338;27;20096;-74
2023/08/28 12:31:32;;;;;;;2.70;0.77;;;;;;;;;;5099984;27;20384;-74
2023/08/28 12:33:58;;;;;;;;;;;;;;;;;;5116253;27;20107;-74
2023/08/28 12:36:40;;;;;;;1.63;0.70;;;;;;;;;;5116845;27;19923;-73
2023/08/28 12:39:07;;;;;;;0.40;0.40;;;;;;;;;;5116170;27;20547;-73
2023/08/28 12:41:36;;;;;;;4.05;0.77;;;;;;;;;;5116575;27;20092;-74
2023/08/28 12:44:03;;;;;;;2.78;0.93;;;;;;;;;;5114969;27;20602;-74
2023/08/28 12:46:29;;;;;;;3.90;0.70;;;;;;;;;;5116642;27;20051;-74
2023/08/28 12:48:55;;;;;;;3.03;1.02;;;;;;;;;;5115518;27;20047;-74
2023/08/28 12:51:22;;;;;;;4.65;0.93;;;;;;;;;;5116067;27;20476;-74
2023/08/28 12:53:48;;;;;;;2.45;0.80;;;;;;;;;;5115799;27;20111;-74
2023/08/28 12:56:16;;;;;;;3.22;1.00;;;;;;;;;;5116343;27;20139;-73
2023/08/28 12:58:42;;;;;;;1.38;0.77;;;;;;;;;;5115235;27;20571;-74
2023/08/28 13:01:09;;;;;;;1.90;0.80;;;;;;;;;;5115690;27;20047;-73
2023/08/28 13:03:35;;;;;;;2.22;0.95;;;;;;;;;;5115533;27;20088;-74
2023/08/28 13:06:01;;;;;;;1.65;0.85;;;;;;;;;;5115795;27;20164;-73
2023/08/28 13:08:27;;;;;;;2.00;0.60;;;;;;;;;;5116006;27;20095;-72
2023/08/28 13:10:54;;;;;;;1.25;0.77;;;;;;;;;;5114915;27;20086;-72
2023/08/28 13:13:24;;;;;;;1.52;0.65;;;;;;;;;;5114960;27;20051;-73
2023/08/28 13:15:50;;;;;;;1.33;0.70;;;;;;;;;;5115551;27;20050;-73
2023/08/28 13:18:16;;;;;;;2.75;0.68;;;;;;;;;;5115562;27;20178;-73
2023/08/28 13:20:43;;;;;;;1.70;0.70;;;;;;;;;;5115963;27;20163;-73
2023/08/28 13:23:09;;;;;;;2.22;0.80;;;;;;;;;;5098096;27;20126;-73
2023/08/28 13:25:35;;;;;;;1.40;1.00;;;;;;;;;;5115948;27;20092;-73
2023/08/28 13:28:01;;;;;;;0.50;0.50;;;;;;;;;;5114097;27;20051;-73
2023/08/28 13:30:27;;;;;;;2.38;1.00;;;;;;;;;;5115880;27;20172;-73
2023/08/28 13:32:55;;;;;;;3.75;0.90;;;;;;;;;;5114711;27;20074;-72
2023/08/28 13:35:22;;;;;;;1.75;0.93;;;;;;;;;;5098767;27;20126;-72
2023/08/28 13:37:48;;;;;;;1.23;0.85;;;;;;;;;;5098559;27;20047;-72
2023/08/28 13:40:14;;;;;;;2.22;0.90;;;;;;;;;;5098379;27;20047;-72
2023/08/28 13:42:40;;;;;;;2.10;0.80;;;;;;;;;;5097873;27;20050;-72
2023/08/28 13:45:06;;;;;;;4.15;0.90;;;;;;;;;;5114227;27;20407;-73
2023/08/28 13:47:33;;;;;;;3.00;1.30;;;;;;;;;;5114864;27;20039;-72
2023/08/28 13:49:59;;;;;;;1.70;0.90;;;;;;;;;;5098018;27;20043;-72
2023/08/28 13:52:26;;;;;;;0.85;0.70;;;;;;;;;;5115161;27;20045;-72
2023/08/28 13:54:52;;;;;;;1.63;0.90;;;;;;;;;;5115013;27;20035;-75
2023/08/28 13:57:18;;;;;;;2.50;0.90;;;;;;;;;;5114268;27;20043;-73
2023/08/28 13:59:44;;;;;;;1.00;0.82;;;;;;;;;;5114755;27;20054;-72
2023/08/28 14:02:10;;;;;;;0.82;0.75;;;;;;;;;;5113432;27;20088;-72
2023/08/28 14:04:36;;;;;;;1.60;0.80;;;;;;;;;;5115046;27;20039;-72
2023/08/28 14:07:03;;;;;;;1.80;0.80;;;;;;;;;;5114652;27;20047;-72
2023/08/28 14:09:29;;;;;;;1.65;0.70;;;;;;;;;;5114535;27;20546;-72
2023/08/28 14:11:55;;;;;;;3.72;0.90;;;;;;;;;;5114413;27;20384;-73
2023/08/28 14:14:22;;;;;;;2.92;0.93;;;;;;;;;;5114184;27;20099;-73
2023/08/28 14:16:48;;;;;;;2.58;0.70;;;;;;;;;;5115145;28;20039;-72
2023/08/28 14:19:14;;;;;;;2.20;0.70;;;;;;;;;;5132304;27;20134;-73
2023/08/28 14:21:40;;;;;;;1.38;0.80;;;;;;;;;;5114993;27;20504;-73
2023/08/28 14:24:08;;;;;;;1.98;0.90;;;;;;;;;;5114176;28;20043;-72
2023/08/28 14:26:34;;;;;;;0.80;0.57;;;;;;;;;;5114752;28;20057;-74
2023/08/28 14:29:00;;;;;;;2.20;0.80;;;;;;;;;;5095794;28;20054;-74
2023/08/28 14:31:26;;;;;;;2.17;0.80;;;;;;;;;;5114281;28;20147;-73
2023/08/28 14:33:52;;;;;;;2.25;0.82;;;;;;;;;;5114459;28;20114;-73
2023/08/28 14:36:18;;;;;;;1.58;0.65;;;;;;;;;;5114341;28;20246;-73
2023/08/28 14:38:44;;;;;;;1.30;0.70;;;;;;;;;;5114739;28;20050;-73
2023/08/28 14:41:10;;;;;;;2.30;0.80;;;;;;;;;;5097214;28;20092;-73
2023/08/28 14:43:36;;;;;;;1.60;0.70;;;;;;;;;;5113642;28;20040;-73
2023/08/28 14:46:02;;;;;;;1.92;0.80;;;;;;;;;;5114140;28;20043;-73
2023/08/28 14:48:28;;;;;;;1.17;0.73;;;;;;;;;;5097450;28;20102;-73